• Join FlightAware (Why Join?)
  • Login
  • US Flag 
11:19AM EDT


 

Airport Tracker/Info


-or-


 

Live Flight TrackerFlight Track Log ✈ CSN6373 ✈ 30-Jun-2013 ✈ ZYCC / CGQ - ZSPD / PVG

Flight Track Log - Related Links

Times and Time Zones

All times are in EDT time to prevent confusion due to time zone crossing. See the CSN6373 flight status page for this flight to view local times or setup timezone preferences in your user account.

Time Position Orientation Groundspeed Altitude Reporting Facility
EDT Latitude Longitude Course Direction KTS MPH feet Rate Location/Type
10:18AM 43.7989 125.1629 193° South  Level Estimated
10:19AM 43.6912 125.1286 193° South  Level Estimated
10:20AM 43.5835 125.0943 193° South  Level Estimated
10:21AM 43.4758 125.0602 193° South  Level Estimated
10:22AM 43.3681 125.0262 193° South  Level Estimated
10:23AM 43.2603 124.9923 193° South  Level Estimated
10:24AM 43.1526 124.9586 193° South  Level Estimated
10:25AM 43.0448 124.9249 193° South  Level Estimated
10:26AM 42.9371 124.8914 193° South  Level Estimated
10:27AM 42.8293 124.8580 193° South  Level Estimated
10:28AM 42.7215 124.8247 193° South  Level Estimated
10:29AM 42.6137 124.7915 193° South  Level Estimated
10:30AM 42.5059 124.7585 193° South  Level Estimated
10:31AM 42.3981 124.7255 193° South  Level Estimated
10:32AM 42.2903 124.6927 193° South  Level Estimated
10:33AM 42.1825 124.6600 193° South  Level Estimated
10:34AM 42.0746 124.6274 193° South  Level Estimated
10:35AM 41.9668 124.5949 193° South  Level Estimated
10:36AM 41.8589 124.5625 193° South  Level Estimated
10:37AM 41.7511 124.5302 193° South  Level Estimated
10:38AM 41.6432 124.4980 193° South  Level Estimated
10:39AM 41.5353 124.4660 193° South  Level Estimated
10:40AM 41.4274 124.4340 193° South  Level Estimated
10:41AM 41.3195 124.4022 192° South  Level Estimated
10:42AM 41.2116 124.3705 192° South  Level Estimated
10:43AM 41.1037 124.3388 192° South  Level Estimated
10:44AM 40.9958 124.3073 192° South  Level Estimated
10:45AM 40.8878 124.2758 192° South  Level Estimated
10:46AM 40.7799 124.2445 192° South  Level Estimated
10:47AM 40.6720 124.2133 192° South  Level Estimated
10:48AM 40.5640 124.1822 192° South  Level Estimated
10:49AM 40.4560 124.1511 192° South  Level Estimated
10:50AM 40.3480 124.1202 192° South  Level Estimated
10:51AM 40.2401 124.0894 192° South  Level Estimated
10:52AM 40.1321 124.0586 192° South  Level Estimated
10:53AM 40.0241 124.0280 192° South  Level Estimated
10:54AM 39.9160 123.9975 192° South  Level Estimated
10:55AM 39.8080 123.9670 192° South  Level Estimated
10:56AM 39.7000 123.9367 192° South  Level Estimated
10:57AM 39.5920 123.9064 192° South  Level Estimated
10:58AM 39.4839 123.8763 192° South  Level Estimated
10:59AM 39.3759 123.8462 192° South  Level Estimated
11:00AM 39.2678 123.8163 192° South  Level Estimated
11:01AM 39.1598 123.7864 192° South  Level Estimated
11:02AM 39.0517 123.7566 192° South  Level Estimated
11:03AM 38.9436 123.7269 192° South  Level Estimated
11:04AM 38.8355 123.6973 192° South  Level Estimated
11:05AM 38.7274 123.6678 192° South  Level Estimated
11:06AM 38.6193 123.6384 192° South  Level Estimated
11:07AM 38.5112 123.6090 192° South  Level Estimated
11:08AM 38.4031 123.5798 192° South  Level Estimated
11:09AM 38.2950 123.5506 192° South  Level Estimated
11:10AM 38.1869 123.5216 192° South  Level Estimated
11:11AM 38.0787 123.4926 192° South  Level Estimated
11:12AM 37.9706 123.4637 192° South  Level Estimated
11:13AM 37.8624 123.4348 192° South  Level Estimated
11:14AM 37.7543 123.4061 192° South  Level Estimated
11:15AM 37.6461 123.3775 192° South  Level Estimated
11:16AM 37.5379 123.3489 192° South  Level Estimated
11:17AM 37.4297 123.3204 192° South  Level Estimated
11:18AM 37.3215 123.2920 192° South  Level Estimated
11:19AM 37.2134 123.2637 192° South  Level Estimated
11:20AM 37.1052 123.2355 192° South  Level Estimated
11:21AM 36.9969 123.2073 192° South  Level Estimated
11:22AM 36.8887 123.1792 192° South  Level Estimated
11:23AM 36.7805 123.1512 192° South  Level Estimated
11:24AM 36.6723 123.1233 192° South  Level Estimated
11:25AM 36.5641 123.0955 192° South  Level Estimated
11:26AM 36.4558 123.0677 192° South  Level Estimated
11:27AM 36.3476 123.0400 192° South  Level Estimated
11:28AM 36.2393 123.0124 192° South  Level Estimated
11:29AM 36.1311 122.9849 192° South  Level Estimated
11:30AM 36.0228 122.9574 192° South  Level Estimated
11:31AM 35.9145 122.9300 192° South  Level Estimated
11:32AM 35.8063 122.9027 192° South  Level Estimated
11:33AM 35.6980 122.8755 192° South  Level Estimated
11:34AM 35.5897 122.8483 192° South  Level Estimated
11:35AM 35.4814 122.8213 192° South  Level Estimated
11:36AM 35.3731 122.7942 191° South  Level Estimated
11:37AM 35.2648 122.7673 191° South  Level Estimated
11:38AM 35.1565 122.7404 191° South  Level Estimated
11:39AM 35.0481 122.7136 191° South  Level Estimated
11:40AM 34.9398 122.6869 191° South  Level Estimated
11:41AM 34.8315 122.6603 191° South  Level Estimated
11:42AM 34.7231 122.6337 191° South  Level Estimated
11:43AM 34.6148 122.6072 191° South  Level Estimated
11:44AM 34.5065 122.5807 191° South  Level Estimated
11:45AM 34.3981 122.5544 191° South  Level Estimated
11:46AM 34.2897 122.5280 191° South  Level Estimated
11:47AM 34.1814 122.5018 191° South  Level Estimated
11:48AM 34.0730 122.4756 191° South  Level Estimated
11:49AM 33.9646 122.4495 191° South  Level Estimated
11:50AM 33.8562 122.4235 191° South  Level Estimated
11:51AM 33.7478 122.3975 191° South  Level Estimated
11:52AM 33.6395 122.3716 191° South  Level Estimated
11:53AM 33.5311 122.3458 191° South  Level Estimated
11:54AM 33.4227 122.3200 191° South  Level Estimated
11:55AM 33.3143 122.2943 191° South  Level Estimated
11:56AM 33.2058 122.2686 191° South  Level Estimated
11:57AM 33.0974 122.2430 191° South  Level Estimated
11:58AM 32.9890 122.2175 191° South  Level Estimated
11:59AM 32.8806 122.1920 191° South  Level Estimated
12:00PM 32.7721 122.1666 191° South  Level Estimated
12:01PM 32.6637 122.1413 191° South  Level Estimated
12:02PM 32.5552 122.1160 191° South  Level Estimated
12:03PM 32.4468 122.0908 191° South  Level Estimated
12:04PM 32.3383 122.0657 191° South  Level Estimated
12:05PM 32.2299 122.0406 191° South  Level Estimated
12:06PM 32.1214 122.0155 191° South  Level Estimated
12:07PM 32.0129 121.9906 191° South  Level Estimated
12:08PM 31.9045 121.9657 191° South  Level Estimated
12:09PM 31.7960 121.9408 191° South  Level Estimated
12:10PM 31.6875 121.9160 191° South  Level Estimated
12:11PM 31.5790 121.8913 191° South  Level Estimated
12:12PM 31.4705 121.8666 191° South  Level Estimated
12:13PM 31.3620 121.8419 191° South  Level Estimated
12:14PM 31.2535 121.8174 191° South  Level Estimated
12:15PM 31.1450 121.7929 191° South  Level Estimated
12:16PM 31.1428 121.7924 191° South  Level Estimated
12:17PM 31.1428 121.7924 221° Southwest  Level Estimated
12:18PM 31.1428 121.7924 221° Southwest  Level Estimated
12:19PM 31.1428 121.7924 221° Southwest  Level Estimated
12:20PM 31.1428 121.7924 221° Southwest  Level Estimated
12:21PM 31.1428 121.7924 221° Southwest  Level Estimated
12:22PM 31.1428 121.7924 221° Southwest  Level Estimated
12:23PM 31.1428 121.7924 221° Southwest  Level Estimated
12:24PM 31.1428 121.7924 221° Southwest  Level Estimated
12:25PM 31.1428 121.7924 221° Southwest  Level Estimated
12:26PM 31.1428 121.7924 221° Southwest  Level Estimated
12:27PM 31.1428 121.7924 221° Southwest  Level Estimated